Time;durP1;ratioP1;P1;durP2;ratioP2;P2;SDS_P1;SDS_P2;PMS_P1;PMS_P2;Temp;Humidity;BMP_temperature;BMP_pressure;BME280_temperature;BME280_humidity;BME280_pressure;Samples;Min_cycle;Max_cycle;Signal;HPM_P1;HPM_P2
2023/02/28 00:00:12;;;;;;;1.50;1.00;;;;;;;2.84;88.63;103203.78;5039453;28;20045;-72
2023/02/28 00:02:38;;;;;;;1.27;1.17;;;;;;;2.83;nan;103204.59;5039350;28;20037;-72
2023/02/28 00:05:06;;;;;;;1.75;1.30;;;;;;;2.82;88.76;103210.63;5039082;28;20040;-72
2023/02/28 00:07:31;;;;;;;1.10;1.02;;;;;;;2.82;88.79;103200.25;5039353;28;20512;-72
2023/02/28 00:09:57;;;;;;;0.88;0.82;;;;;;;2.82;88.83;103199.34;5039426;28;20033;-72
2023/02/28 00:12:23;;;;;;;0.98;0.98;;;;;;;2.81;88.70;103208.84;5038936;28;20104;-72
2023/02/28 00:14:49;;;;;;;0.90;0.90;;;;;;;2.80;88.93;103213.97;5039213;28;20034;-72
2023/02/28 00:17:16;;;;;;;1.65;1.05;;;;;;;2.79;88.89;103212.22;5038978;28;20111;-72
2023/02/28 00:19:41;;;;;;;1.15;1.05;;;;;;;2.77;88.83;103219.94;5038790;28;20029;-72
2023/02/28 00:22:06;;;;;;;1.70;1.17;;;;;;;2.77;88.93;103227.72;5038913;28;20163;-72
2023/02/28 00:24:32;;;;;;;1.55;1.30;;;;;;;2.76;89.00;103220.75;5038805;28;20229;-72
2023/02/28 00:26:57;;;;;;;1.63;1.15;;;;;;;2.77;88.99;103224.25;5038918;28;20055;-72
2023/02/28 00:29:23;;;;;;;1.20;1.10;;;;;;;2.76;88.99;103217.31;5039183;28;20033;-72
2023/02/28 00:31:48;;;;;;;1.08;1.02;;;;;;;2.75;89.12;103229.38;5039005;28;20328;-72
2023/02/28 00:34:13;;;;;;;2.42;1.50;;;;;;;2.74;89.07;103225.03;5038780;28;20029;-72
2023/02/28 00:36:40;;;;;;;1.42;1.33;;;;;;;2.74;89.05;103227.59;5038800;28;20224;-72
2023/02/28 00:39:06;;;;;;;2.05;1.10;;;;;;;2.74;89.14;103230.19;5038178;28;20041;-72
2023/02/28 00:41:31;;;;;;;1.50;1.30;;;;;;;2.74;89.27;103227.59;5038528;28;20037;-72
2023/02/28 00:43:56;;;;;;;2.30;1.15;;;;;;;2.76;89.45;103218.19;5038444;28;20037;-72
2023/02/28 00:46:22;;;;;;;1.52;1.27;;;;;;;2.77;89.46;103219.94;5038418;28;20111;-72
2023/02/28 00:48:47;;;;;;;1.40;1.00;;;;;;;2.80;89.72;103216.56;5038308;28;20103;-72
2023/02/28 00:51:12;;;;;;;0.93;0.93;;;;;;;2.81;89.76;103215.75;5038681;28;20037;-72
2023/02/28 00:53:38;;;;;;;1.25;1.10;;;;;;;2.82;89.89;103220.06;5038153;28;20058;-72
2023/02/28 00:56:04;;;;;;;1.10;1.00;;;;;;;2.83;89.96;103216.66;5038786;28;20048;-72
2023/02/28 00:58:29;;;;;;;1.25;1.13;;;;;;;2.83;90.02;103199.41;5038345;28;20029;-72
2023/02/28 01:00:54;;;;;;;1.10;1.00;;;;;;;2.84;90.02;103206.34;5038248;28;20033;-72
2023/02/28 01:03:21;;;;;;;1.17;1.08;;;;;;;2.85;90.19;103212.41;5037912;28;20049;-72
2023/02/28 01:05:47;;;;;;;1.20;1.00;;;;;;;2.86;90.16;103216.75;5038177;28;20336;-72
2023/02/28 01:08:13;;;;;;;1.08;0.90;;;;;;;2.87;90.39;103222.00;5038581;28;20068;-72
2023/02/28 01:10:39;;;;;;;1.38;1.13;;;;;;;2.87;90.44;103227.16;5037731;28;20033;-72
2023/02/28 01:13:05;;;;;;;1.20;1.10;;;;;;;2.88;90.41;103222.84;5038287;28;20086;-72
2023/02/28 01:15:31;;;;;;;1.75;1.13;;;;;;;2.87;90.49;103227.16;5038173;28;20037;-72
2023/02/28 01:17:57;;;;;;;1.10;1.00;;;;;;;2.88;90.61;103234.06;5037810;28;20044;-72
2023/02/28 01:20:22;;;;;;;1.02;1.00;;;;;;;2.89;90.75;103232.34;5037622;28;20026;-72
2023/02/28 01:22:48;;;;;;;1.20;1.13;;;;;;;2.90;90.82;103223.78;5037864;28;20104;-72
2023/02/28 01:25:13;;;;;;;1.98;1.30;;;;;;;2.90;90.84;103220.31;5038358;28;20336;-72
2023/02/28 01:27:39;;;;;;;1.15;1.05;;;;;;;2.92;90.95;103227.28;5037936;28;20070;-72
2023/02/28 01:30:06;;;;;;;1.88;1.17;;;;;;;2.93;91.10;103225.56;5037893;28;20102;-72
2023/02/28 01:32:32;;;;;;;1.75;0.90;;;;;;;2.93;91.07;103226.47;5037933;28;20087;-72
2023/02/28 01:34:57;;;;;;;1.08;0.93;;;;;;;2.94;91.17;103215.25;5038162;28;20045;-72
2023/02/28 01:37:22;;;;;;;2.20;1.23;;;;;;;2.95;91.25;103219.63;5037688;28;20048;-72
2023/02/28 01:39:48;;;;;;;1.63;1.33;;;;;;;2.95;91.27;103217.03;5037654;28;20079;-72
2023/02/28 01:42:13;;;;;;;2.42;1.25;;;;;;;2.96;91.42;103208.41;5037796;28;20091;-72
2023/02/28 01:45:16;;;;;;;1.52;1.08;;;;;;;2.96;91.36;103207.53;5037629;28;20033;-72
2023/02/28 01:47:43;;;;;;;1.67;1.00;;;;;;;2.96;91.06;103215.31;5037943;28;20268;-72
2023/02/28 01:50:23;;;;;;;2.28;1.30;;;;;;;2.97;91.31;103209.31;5037728;28;20029;-72
2023/02/28 01:52:50;;;;;;;1.25;1.10;;;;;;;2.97;91.41;103211.91;5037824;28;20041;-72
2023/02/28 01:55:19;;;;;;;1.75;1.30;;;;;;;2.97;91.49;103194.66;5037613;28;20042;-72
2023/02/28 01:57:48;;;;;;;2.25;1.20;;;;;;;2.97;91.43;103194.66;5037608;28;20244;-72
2023/02/28 02:00:17;;;;;;;1.58;1.48;;;;;;;2.96;91.52;103192.88;5037599;28;20144;-72
2023/02/28 02:02:46;;;;;;;1.25;1.15;;;;;;;2.97;91.43;103188.59;5034133;28;20414;-72
2023/02/28 02:05:15;;;;;;;;;;;;;;;2.98;91.64;103192.94;5037155;28;20105;-72
2023/02/28 02:07:44;;;;;;;1.10;1.00;;;;;;;2.98;91.58;103193.78;5038346;28;20112;-72
2023/02/28 02:10:32;;;;;;;1.38;1.20;;;;;;;2.98;91.63;103187.75;5037675;28;20251;-72
2023/02/28 02:13:16;;;;;;;2.45;1.20;;;;;;;2.98;91.66;103180.84;5038241;28;20387;-72
2023/02/28 02:15:56;;;;;;;1.80;1.30;;;;;;;2.99;91.70;103185.22;5037489;28;20225;-72
2023/02/28 02:18:33;;;;;;;1.20;1.10;;;;;;;3.00;91.91;103181.78;5037028;28;20515;-72
2023/02/28 02:21:40;;;;;;;1.40;1.30;;;;;;;3.02;92.01;103182.72;5037442;28;20368;-72
2023/02/28 02:24:27;;;;;;;1.08;1.08;;;;;;;3.02;92.08;103180.13;5024374;28;20139;-72
2023/02/28 02:27:18;;;;;;;1.35;1.23;;;;;;;3.03;92.26;103174.09;5041314;28;20033;-72
2023/02/28 02:30:19;;;;;;;1.50;1.40;;;;;;;3.05;92.16;103175.00;5041391;28;20096;-72
2023/02/28 02:32:56;;;;;;;0.90;0.90;;;;;;;3.05;92.30;103167.25;5041266;28;20033;-72
2023/02/28 02:35:31;;;;;;;1.30;1.20;;;;;;;3.05;92.33;103159.47;5040356;28;20056;-72
2023/02/28 02:38:13;;;;;;;1.30;1.20;;;;;;;3.06;92.21;103165.56;5041282;28;20076;-72
2023/02/28 02:40:47;;;;;;;1.77;1.40;;;;;;;3.03;92.12;103161.16;5040159;28;20072;-72
2023/02/28 02:43:51;;;;;;;2.65;1.95;;;;;;;3.05;92.24;103168.97;5040920;28;20104;-72
2023/02/28 02:46:39;;;;;;;2.60;1.90;;;;;;;3.04;92.16;103168.09;4978838;28;20306;-72
2023/02/28 02:49:10;;;;;;;2.80;2.20;;;;;;;3.04;92.10;103165.50;5039042;28;20053;-72
2023/02/28 02:51:38;;;;;;;2.08;1.85;;;;;;;3.03;92.06;103161.16;5040725;28;20029;-72
2023/02/28 02:54:41;;;;;;;4.45;2.22;;;;;;;3.03;92.17;103155.97;5040735;28;20260;-72
2023/02/28 02:57:11;;;;;;;2.53;1.92;;;;;;;3.04;92.11;103162.06;4979230;28;20051;-72
2023/02/28 02:59:39;;;;;;;3.45;2.20;;;;;;;3.03;91.93;103158.56;5029925;28;20065;-72
2023/02/28 03:02:08;;;;;;;2.85;2.30;;;;;;;3.05;91.95;103158.59;5040511;28;20110;-72
2023/02/28 03:04:38;;;;;;;;;;;;;;;3.06;92.21;103162.97;5038860;28;20033;-72
2023/02/28 03:07:03;;;;;;;2.80;2.35;;;;;;;3.08;92.32;103166.47;5040486;28;19912;-72
2023/02/28 03:09:32;;;;;;;3.90;2.28;;;;;;;3.10;92.42;103169.09;5039850;28;20056;-72
2023/02/28 03:11:58;;;;;;;1.92;1.83;;;;;;;3.12;92.50;103172.63;5040462;28;20037;-72
2023/02/28 03:14:26;;;;;;;2.72;1.95;;;;;;;3.13;92.67;103172.66;5039892;28;20284;-72
2023/02/28 03:17:11;;;;;;;1.75;1.52;;;;;;;3.15;92.69;103168.41;5040643;28;20041;-72
2023/02/28 03:19:42;;;;;;;3.67;2.15;;;;;;;3.16;92.79;103170.13;5039518;28;20088;-72
2023/02/28 03:22:32;;;;;;;2.63;1.98;;;;;;;3.20;93.05;103179.75;5040333;28;20080;-72
2023/02/28 03:25:07;;;;;;;2.15;1.95;;;;;;;3.21;93.22;103181.50;5040213;28;20056;-72
2023/02/28 03:27:42;;;;;;;3.28;1.85;;;;;;;3.22;93.19;103179.78;5039575;28;20341;-72
2023/02/28 03:30:18;;;;;;;3.97;2.20;;;;;;;3.24;93.28;103181.59;5040553;28;20033;-72
2023/02/28 03:32:55;;;;;;;2.30;2.10;;;;;;;3.25;93.45;103178.16;5039754;28;20041;-72
2023/02/28 03:35:24;;;;;;;2.15;1.98;;;;;;;3.27;93.57;103183.38;5039188;28;20112;-72
2023/02/28 03:37:52;;;;;;;;;;;;;;;3.26;93.54;103176.47;5040418;28;20029;-72
2023/02/28 03:40:22;;;;;;;2.08;1.92;;;;;;;3.28;93.59;103179.97;5038979;28;19959;-72
2023/02/28 03:42:54;;;;;;;3.33;2.00;;;;;;;3.29;93.58;103176.53;5039944;28;20045;-72
2023/02/28 03:45:28;;;;;;;3.05;2.30;;;;;;;3.29;93.79;103181.69;5039542;28;20033;-72
2023/02/28 03:48:02;;;;;;;2.45;2.25;;;;;;;3.30;93.70;103177.41;5040055;28;20132;-72
2023/02/28 03:50:40;;;;;;;3.05;2.45;;;;;;;3.30;93.91;103185.19;5038870;28;20072;-72
2023/02/28 03:53:14;;;;;;;3.78;2.53;;;;;;;3.30;94.04;103173.09;5039819;28;20382;-72
2023/02/28 03:55:48;;;;;;;3.33;2.40;;;;;;;3.31;93.99;103179.16;5039536;28;20021;-72
2023/02/28 03:58:28;;;;;;;2.80;2.60;;;;;;;3.32;94.15;103175.75;5039254;28;20037;-72
2023/02/28 04:01:07;;;;;;;2.60;2.40;;;;;;;3.32;94.16;103166.25;5039273;28;20040;-72
2023/02/28 04:03:34;;;;;;;;;;;;;;;3.33;94.28;103160.25;5039198;28;20060;-72
2023/02/28 04:05:59;;;;;;;2.53;2.33;;;;;;;3.35;94.30;103160.28;5039021;28;20120;-72
2023/02/28 04:08:24;;;;;;;3.78;2.42;;;;;;;3.35;94.31;103163.75;5038984;28;20033;-72
2023/02/28 04:11:00;;;;;;;2.50;2.30;;;;;;;3.35;94.40;103166.34;5039352;28;20041;-72
2023/02/28 04:13:26;;;;;;;2.60;2.40;;;;;;;3.37;94.47;103161.22;5038513;28;20079;-72
2023/02/28 04:15:51;;;;;;;2.25;2.05;;;;;;;3.37;94.65;103168.97;5039434;28;20037;-72
2023/02/28 04:18:17;;;;;;;2.30;2.20;;;;;;;3.39;94.69;103169.91;5038781;28;20033;-72
2023/02/28 04:20:42;;;;;;;3.17;2.13;;;;;;;3.39;94.74;103173.34;5039124;28;20041;-72
2023/02/28 04:23:08;;;;;;;2.47;2.28;;;;;;;3.40;94.82;103174.22;5039274;28;20380;-72
2023/02/28 04:25:33;;;;;;;2.30;2.10;;;;;;;3.40;94.84;103177.72;5039217;28;20044;-72
2023/02/28 04:27:58;;;;;;;6.35;2.95;;;;;;;3.41;94.93;103178.56;5039198;28;20033;-72
2023/02/28 04:30:24;;;;;;;2.75;2.47;;;;;;;3.41;94.94;103173.41;5038808;28;20132;-72
2023/02/28 04:32:49;;;;;;;3.15;2.50;;;;;;;3.42;95.02;103177.72;5039234;28;20060;-72
2023/02/28 04:35:15;;;;;;;2.80;2.60;;;;;;;3.42;95.11;103177.72;5038013;28;20041;-72
2023/02/28 04:37:41;;;;;;;3.75;2.70;;;;;;;3.42;95.14;103182.91;5038739;28;20045;-72
2023/02/28 04:40:07;;;;;;;2.88;2.67;;;;;;;3.42;95.16;103185.50;5038217;28;20120;-72
2023/02/28 04:42:35;;;;;;;3.00;2.70;;;;;;;3.41;95.11;103186.34;5038035;28;20063;-72
2023/02/28 04:45:02;;;;;;;2.10;2.00;;;;;;;3.42;95.24;103182.91;5037729;28;20040;-72
2023/02/28 04:47:28;;;;;;;2.90;2.67;;;;;;;3.42;95.29;103185.50;5037901;28;20029;-72
2023/02/28 04:49:53;;;;;;;3.97;2.92;;;;;;;3.41;95.24;103189.81;5038119;28;20245;-72
2023/02/28 04:52:19;;;;;;;2.83;2.60;;;;;;;3.41;95.21;103188.94;5038079;28;20100;-72
2023/02/28 04:54:44;;;;;;;2.60;2.40;;;;;;;3.41;95.21;103189.81;5038487;28;20036;-72
2023/02/28 04:57:10;;;;;;;2.53;2.33;;;;;;;3.42;95.08;103185.50;5038339;28;20524;-72
2023/02/28 04:59:35;;;;;;;2.85;2.47;;;;;;;3.42;95.28;103188.97;5037640;28;20402;-72
2023/02/28 05:02:06;;;;;;;3.80;3.03;;;;;;;3.41;95.16;103189.81;5038361;28;20064;-72
2023/02/28 05:04:33;;;;;;;4.15;3.17;;;;;;;3.41;95.11;103192.41;5037249;28;20392;-72
2023/02/28 05:07:00;;;;;;;3.10;2.90;;;;;;;3.41;95.14;103192.41;5038109;28;20048;-72
2023/02/28 05:09:25;;;;;;;3.70;3.40;;;;;;;3.42;95.11;103195.84;5037688;28;20045;-72
2023/02/28 05:11:50;;;;;;;2.92;2.72;;;;;;;3.41;95.19;103192.41;5038143;28;20065;-72
2023/02/28 05:14:16;;;;;;;5.00;3.30;;;;;;;3.41;95.12;103184.63;5036290;28;20104;-72
2023/02/28 05:16:42;;;;;;;3.28;3.08;;;;;;;3.41;95.05;103195.00;5037991;28;20033;-72
2023/02/28 05:19:07;;;;;;;4.80;3.50;;;;;;;3.42;95.08;103198.44;5037822;28;20048;-72
2023/02/28 05:21:39;;;;;;;4.63;3.85;;;;;;;3.43;95.13;103184.66;5037213;28;20056;-72
2023/02/28 05:24:08;;;;;;;4.43;4.10;;;;;;;3.41;95.20;103189.81;5037932;28;20037;-72
2023/02/28 05:26:36;;;;;;;6.18;4.18;;;;;;;3.43;95.12;103189.84;5037287;28;20056;-72
2023/02/28 05:29:02;;;;;;;4.50;4.10;;;;;;;3.43;95.02;103195.03;5037952;28;20033;-72
2023/02/28 05:31:27;;;;;;;4.15;3.75;;;;;;;3.42;95.06;103193.25;5037113;28;20084;-72
2023/02/28 05:33:53;;;;;;;3.95;3.63;;;;;;;3.43;95.22;103195.91;5038196;28;20041;-72
2023/02/28 05:36:19;;;;;;;4.07;3.72;;;;;;;3.43;95.19;103188.13;5035784;28;20408;-72
2023/02/28 05:38:46;;;;;;;5.13;4.68;;;;;;;3.44;95.06;103189.03;5037962;28;20224;-72
2023/02/28 05:41:12;;;;;;;4.47;4.07;;;;;;;3.44;95.07;103187.31;5037806;28;20114;-72
2023/02/28 05:43:38;;;;;;;5.03;4.18;;;;;;;3.45;95.10;103195.94;5037180;28;20040;-72
2023/02/28 05:46:08;;;;;;;4.68;4.28;;;;;;;3.44;95.22;103194.22;5037869;28;20041;-72
2023/02/28 05:48:35;;;;;;;4.60;4.30;;;;;;;3.45;95.16;103193.34;5037548;28;20064;-72
2023/02/28 05:51:01;;;;;;;5.53;5.03;;;;;;;3.45;95.24;103194.22;5037570;28;20053;-72
2023/02/28 05:53:26;;;;;;;5.40;4.88;;;;;;;3.44;95.15;103186.44;5037196;28;20048;-72
2023/02/28 05:55:52;;;;;;;5.03;4.63;;;;;;;3.45;95.17;103195.94;5038282;28;20056;-72
2023/02/28 05:58:18;;;;;;;4.88;4.47;;;;;;;3.45;95.24;103190.78;5041297;28;20040;-72
2023/02/28 06:00:43;;;;;;;4.93;4.53;;;;;;;3.44;95.31;103187.31;5041405;28;20033;-72
2023/02/28 06:03:09;;;;;;;5.22;4.72;;;;;;;3.45;95.26;103190.78;5041673;28;20033;-72
2023/02/28 06:05:34;;;;;;;4.80;4.40;;;;;;;3.44;95.17;103181.25;5040842;28;20333;-72
2023/02/28 06:08:00;;;;;;;5.10;4.63;;;;;;;3.44;95.11;103176.06;5041648;28;20045;-72
2023/02/28 06:10:25;;;;;;;4.93;4.53;;;;;;;3.44;95.06;103178.66;5041086;28;20084;-72
2023/02/28 06:12:50;;;;;;;6.78;6.13;;;;;;;3.43;94.96;103179.50;5041663;28;20033;-72
2023/02/28 06:15:16;;;;;;;4.47;4.07;;;;;;;3.41;94.87;103179.44;5041387;28;20052;-72
2023/02/28 06:17:43;;;;;;;4.40;4.00;;;;;;;3.42;95.04;103188.97;5041523;28;20029;-72
2023/02/28 06:20:10;;;;;;;4.63;4.20;;;;;;;3.43;94.92;103184.66;5041201;28;20037;-72
2023/02/28 06:22:36;;;;;;;4.30;3.67;;;;;;;3.42;95.00;103183.81;5040997;28;20033;-72
2023/02/28 06:25:04;;;;;;;6.13;4.03;;;;;;;3.41;94.87;103192.41;5041609;28;20049;-72
2023/02/28 06:27:31;;;;;;;4.03;3.72;;;;;;;3.42;94.70;103195.84;5040195;28;20052;-72
2023/02/28 06:29:56;;;;;;;4.13;3.83;;;;;;;3.40;94.94;103190.66;5041148;28;20052;-72
2023/02/28 06:32:22;;;;;;;4.10;3.70;;;;;;;3.40;94.93;103187.16;5040866;28;20076;-72
2023/02/28 06:34:47;;;;;;;4.30;3.90;;;;;;;3.39;94.79;103188.03;5041027;28;20258;-72
2023/02/28 06:37:13;;;;;;;3.83;3.53;;;;;;;3.39;94.93;103198.38;5041216;28;20249;-72
2023/02/28 06:39:38;;;;;;;3.55;3.25;;;;;;;3.38;95.06;103194.91;5040406;28;20048;-72
2023/02/28 06:42:04;;;;;;;3.30;3.00;;;;;;;3.39;95.04;103198.38;5041203;28;20037;-72
2023/02/28 06:44:35;;;;;;;3.20;3.00;;;;;;;3.38;94.85;103201.78;5040666;28;20037;-72
2023/02/28 06:47:05;;;;;;;4.18;2.95;;;;;;;3.36;94.91;103204.34;5040926;28;20034;-72
2023/02/28 06:49:32;;;;;;;2.80;2.60;;;;;;;3.35;94.92;103202.59;5040236;28;20084;-72
2023/02/28 06:51:57;;;;;;;2.58;2.38;;;;;;;3.34;94.87;103205.16;5040876;28;20045;-72
2023/02/28 06:54:23;;;;;;;2.50;2.30;;;;;;;3.33;94.77;103203.38;5039975;28;20059;-72
2023/02/28 06:56:48;;;;;;;2.80;2.60;;;;;;;3.31;94.93;103205.06;5040436;28;20034;-72
2023/02/28 06:59:14;;;;;;;2.50;2.40;;;;;;;3.31;94.83;103213.72;5040645;28;20310;-72
2023/02/28 07:01:40;;;;;;;2.67;2.47;;;;;;;3.30;94.91;103224.91;5041050;28;20332;-72
2023/02/28 07:04:06;;;;;;;3.08;2.80;;;;;;;3.30;94.76;103221.44;5041057;28;20308;-72
2023/02/28 07:06:32;;;;;;;2.22;2.08;;;;;;;3.29;94.81;103217.97;5039945;28;20041;-72
2023/02/28 07:08:57;;;;;;;2.70;2.50;;;;;;;3.28;94.73;103225.72;5048382;28;20063;-72
2023/02/28 07:11:25;;;;;;;2.58;2.38;;;;;;;3.25;94.58;103229.06;5046824;28;20155;-72
2023/02/28 07:13:52;;;;;;;3.60;2.45;;;;;;;3.24;94.50;103235.97;5040520;28;20033;-72
2023/02/28 07:16:17;;;;;;;2.47;2.28;;;;;;;3.22;94.55;103237.66;5039594;28;20104;-72
2023/02/28 07:18:43;;;;;;;2.45;2.25;;;;;;;3.21;94.47;103245.38;5040222;28;20330;-72
2023/02/28 07:21:10;;;;;;;2.53;2.33;;;;;;;3.19;94.49;103241.88;5039754;28;20041;-72
2023/02/28 07:23:37;;;;;;;2.78;2.30;;;;;;;3.19;94.52;103242.72;5039222;28;20041;-72
2023/02/28 07:26:04;;;;;;;3.05;2.85;;;;;;;3.17;94.43;103238.34;5039549;28;20169;-72
2023/02/28 07:28:29;;;;;;;2.60;2.40;;;;;;;3.15;94.50;103245.22;5038693;28;20037;-72
2023/02/28 07:30:54;;;;;;;2.15;2.05;;;;;;;3.16;94.64;103241.78;5039248;28;20040;-72
2023/02/28 07:33:20;;;;;;;2.00;1.85;;;;;;;3.15;94.68;103243.50;5039109;28;20068;-72
2023/02/28 07:35:45;;;;;;;4.00;2.22;;;;;;;3.12;94.35;103245.13;5038856;28;20084;-72
2023/02/28 07:38:12;;;;;;;2.38;2.10;;;;;;;3.10;94.42;103241.59;5039387;28;20041;-72
2023/02/28 07:40:37;;;;;;;2.15;1.95;;;;;;;3.05;94.15;103250.09;5038355;28;20060;-73
2023/02/28 07:43:03;;;;;;;2.40;2.20;;;;;;;3.04;94.00;103244.91;5039819;28;20041;-73
2023/02/28 07:45:31;;;;;;;2.17;1.98;;;;;;;3.00;93.80;103243.94;5039245;28;20041;-73
2023/02/28 07:47:56;;;;;;;2.30;2.10;;;;;;;2.98;93.71;103248.16;5039708;28;20303;-73
2023/02/28 07:50:22;;;;;;;2.67;2.10;;;;;;;2.96;93.54;103257.59;5042052;28;20071;-73
2023/02/28 07:52:47;;;;;;;2.22;2.10;;;;;;;2.93;93.33;103254.94;5039541;28;20036;-73
2023/02/28 07:55:13;;;;;;;2.30;2.10;;;;;;;2.90;93.43;103254.84;5039881;28;20071;-73
2023/02/28 07:57:40;;;;;;;2.15;1.95;;;;;;;2.88;93.12;103253.91;5039200;28;20061;-73
2023/02/28 08:00:09;;;;;;;2.10;2.00;;;;;;;2.85;92.95;103264.16;5039237;28;20037;-73
2023/02/28 08:02:34;;;;;;;;;;;;;;;2.82;92.91;103257.19;5037288;28;20056;-73
2023/02/28 08:05:00;;;;;;;2.50;2.13;;;;;;;2.81;92.64;103257.16;5038483;28;20216;-73
2023/02/28 08:07:25;;;;;;;3.90;2.50;;;;;;;2.78;92.49;103260.50;5037447;28;20048;-73
2023/02/28 08:09:50;;;;;;;3.47;2.13;;;;;;;2.76;92.55;103257.00;5038986;28;20252;-73
2023/02/28 08:12:16;;;;;;;2.50;2.30;;;;;;;2.75;92.58;103260.44;5038169;28;20067;-73
2023/02/28 08:14:41;;;;;;;2.20;2.10;;;;;;;2.74;92.47;103265.56;5038489;28;20045;-73
2023/02/28 08:17:07;;;;;;;2.63;2.42;;;;;;;2.72;92.46;103264.63;5038510;28;20130;-73
2023/02/28 08:19:32;;;;;;;2.10;2.00;;;;;;;2.71;92.33;103266.34;5047552;28;20049;-73
2023/02/28 08:21:58;;;;;;;2.25;2.05;;;;;;;2.69;92.39;103266.31;5044198;28;20319;-73
2023/02/28 08:24:24;;;;;;;2.38;1.92;;;;;;;2.69;92.50;103271.47;5035939;28;20070;-73
2023/02/28 08:26:49;;;;;;;2.88;1.75;;;;;;;2.68;92.48;103254.19;5036314;28;20435;-73
2023/02/28 08:29:15;;;;;;;2.28;2.08;;;;;;;2.69;92.64;103262.81;5035499;28;20040;-73
2023/02/28 08:31:41;;;;;;;2.00;1.90;;;;;;;2.67;92.53;103257.63;5036228;28;20060;-73
2023/02/28 08:34:08;;;;;;;2.45;2.00;;;;;;;2.66;92.30;103249.81;5036692;28;20045;-73
2023/02/28 08:36:34;;;;;;;2.30;2.10;;;;;;;2.64;92.34;103252.34;5035639;28;20313;-73
2023/02/28 08:38:59;;;;;;;2.83;2.00;;;;;;;2.63;92.38;103252.28;5037590;28;20017;-73
2023/02/28 08:41:25;;;;;;;2.33;2.03;;;;;;;2.63;92.37;103244.53;5031878;28;20084;-73
2023/02/28 08:43:51;;;;;;;2.05;1.95;;;;;;;2.61;92.66;103246.19;5029817;28;20037;-73
2023/02/28 08:46:17;;;;;;;2.20;2.00;;;;;;;2.62;92.70;103253.09;5036581;28;20108;-73
2023/02/28 08:48:43;;;;;;;2.10;2.00;;;;;;;2.61;92.77;103248.78;5040363;28;20497;-73
2023/02/28 08:51:13;;;;;;;2.20;2.00;;;;;;;2.60;92.71;103229.78;5038004;28;20370;-73
2023/02/28 08:53:39;;;;;;;3.78;2.60;;;;;;;2.59;92.69;103228.03;5037773;28;20390;-73
2023/02/28 08:56:09;;;;;;;2.67;2.40;;;;;;;2.58;92.60;103231.44;5037122;28;20033;-73
2023/02/28 08:58:35;;;;;;;2.35;2.00;;;;;;;2.56;92.67;103235.69;5035971;28;20065;-73
2023/02/28 09:01:06;;;;;;;2.30;2.20;;;;;;;2.57;92.87;103231.41;5042538;28;20325;-73
2023/02/28 09:03:32;;;;;;;2.53;2.15;;;;;;;2.59;92.97;103232.34;5036238;28;20325;-73
2023/02/28 09:05:59;;;;;;;2.30;2.20;;;;;;;2.59;93.24;103243.53;5036648;28;20290;-73
2023/02/28 09:08:27;;;;;;;2.90;2.17;;;;;;;2.60;93.34;103240.16;5035911;28;20041;-73
2023/02/28 09:10:52;;;;;;;2.25;2.05;;;;;;;2.62;93.26;103232.41;5036836;28;20037;-73
2023/02/28 09:13:18;;;;;;;1.73;1.63;;;;;;;2.62;93.40;103235.00;5037402;28;20119;-73
2023/02/28 09:15:43;;;;;;;2.03;1.92;;;;;;;2.64;93.58;103236.81;5037952;28;20240;-73
2023/02/28 09:18:09;;;;;;;2.20;2.00;;;;;;;2.66;93.77;103245.50;5037555;28;20067;-73
2023/02/28 09:20:38;;;;;;;3.45;2.03;;;;;;;2.65;94.06;103243.72;5036323;28;20033;-73
2023/02/28 09:23:03;;;;;;;2.40;2.20;;;;;;;2.67;93.90;103254.13;5038316;28;20043;-73
2023/02/28 09:25:29;;;;;;;2.53;2.42;;;;;;;2.68;93.91;103248.13;5050481;28;20344;-73
2023/02/28 09:27:54;;;;;;;2.70;2.50;;;;;;;2.69;94.02;103244.69;5037761;28;20248;-73
2023/02/28 09:30:19;;;;;;;3.30;3.00;;;;;;;2.70;94.21;103238.72;5036787;28;20065;-73
2023/02/28 09:32:51;;;;;;;2.80;2.60;;;;;;;2.71;94.28;103243.06;5036592;28;20037;-73
2023/02/28 09:35:23;;;;;;;2.50;2.40;;;;;;;2.73;94.55;103249.16;5035579;28;20041;-73
2023/02/28 09:37:51;;;;;;;2.90;2.70;;;;;;;2.76;94.66;103248.38;5036447;28;20056;-73
2023/02/28 09:40:19;;;;;;;3.20;2.92;;;;;;;2.76;94.77;103246.66;5035579;28;20094;-73
2023/02/28 09:42:47;;;;;;;3.05;2.85;;;;;;;2.79;94.85;103251.06;5036614;28;20057;-73
2023/02/28 09:45:28;;;;;;;3.72;2.90;;;;;;;2.80;95.02;103245.03;5036848;28;20029;-73
2023/02/28 09:47:58;;;;;;;3.13;2.83;;;;;;;2.81;95.17;103244.22;5034576;28;20108;-73
2023/02/28 09:50:32;;;;;;;2.80;2.60;;;;;;;2.83;95.17;103242.53;5036539;28;20026;-73
2023/02/28 09:52:59;;;;;;;3.65;3.35;;;;;;;2.84;95.29;103250.34;5035156;28;20104;-73
2023/02/28 09:55:39;;;;;;;3.00;2.80;;;;;;;2.87;95.51;103252.16;5036512;28;20041;-73
2023/02/28 09:58:08;;;;;;;4.35;2.80;;;;;;;2.87;95.49;103245.28;5037641;28;20039;-73
2023/02/28 10:00:40;;;;;;;3.03;2.80;;;;;;;2.89;95.64;103253.06;5036683;28;20052;-73
2023/02/28 10:03:25;;;;;;;4.35;3.03;;;;;;;2.89;95.73;103258.25;5037546;28;20041;-73
2023/02/28 10:06:12;;;;;;;2.90;2.70;;;;;;;2.89;95.60;103253.06;5037545;28;20041;-73
2023/02/28 10:08:45;;;;;;;2.90;2.70;;;;;;;2.89;95.59;103255.66;5037020;28;20377;-73
2023/02/28 10:11:15;;;;;;;3.00;2.80;;;;;;;2.90;95.84;103251.38;5037661;28;20033;-73
2023/02/28 10:14:10;;;;;;;3.17;2.70;;;;;;;2.90;96.02;103247.06;5037172;28;20040;-73
2023/02/28 10:16:54;;;;;;;3.42;3.22;;;;;;;2.90;95.92;103243.63;5034570;28;20041;-73
2023/02/28 10:19:41;;;;;;;3.15;2.95;;;;;;;2.90;95.94;103260.00;5034912;28;20052;-73
2023/02/28 10:22:17;;;;;;;4.45;3.28;;;;;;;2.92;96.01;103260.06;5023177;28;20056;-73
2023/02/28 10:24:51;;;;;;;3.03;2.72;;;;;;;2.93;95.94;103254.94;5042481;28;20275;-73
2023/02/28 10:27:22;;;;;;;2.65;2.45;;;;;;;2.95;96.06;103244.59;5031071;28;20037;-73
2023/02/28 10:29:50;;;;;;;3.08;2.80;;;;;;;2.97;96.18;103250.72;5036800;28;20329;-73
2023/02/28 10:32:19;;;;;;;2.90;2.67;;;;;;;2.97;96.07;103249.00;5033652;28;20371;-73
2023/02/28 10:34:52;;;;;;;3.05;2.67;;;;;;;2.99;96.07;103246.47;5033804;28;20033;-73
2023/02/28 10:37:19;;;;;;;3.20;2.90;;;;;;;3.02;96.03;103249.13;5036065;28;20048;-73
2023/02/28 10:39:46;;;;;;;2.97;2.78;;;;;;;3.03;96.21;103243.13;5036002;28;20229;-73
2023/02/28 10:42:25;;;;;;;2.85;2.65;;;;;;;3.05;96.29;103249.22;5036192;28;20360;-73
2023/02/28 10:45:09;;;;;;;2.78;2.58;;;;;;;3.06;96.36;103243.22;5040548;28;20040;-72
2023/02/28 10:47:42;;;;;;;4.07;2.67;;;;;;;3.07;96.37;103237.19;5037214;28;20033;-72
2023/02/28 10:50:29;;;;;;;3.40;3.10;;;;;;;3.08;96.16;103238.97;5039754;28;20033;-72
2023/02/28 10:52:55;;;;;;;3.10;2.85;;;;;;;3.08;96.37;103242.41;5040120;28;20438;-72
2023/02/28 10:55:25;;;;;;;3.38;3.15;;;;;;;3.11;96.15;103235.56;5039707;28;20100;-72
2023/02/28 10:57:50;;;;;;;3.50;3.20;;;;;;;3.12;96.20;103234.75;5040088;28;20049;-72
2023/02/28 11:00:22;;;;;;;3.45;3.15;;;;;;;3.13;95.17;103227.03;5039939;28;20044;-72
2023/02/28 11:02:48;;;;;;;3.88;3.53;;;;;;;3.13;95.17;103227.03;5040169;28;20104;-72
2023/02/28 11:05:35;;;;;;;4.45;3.40;;;;;;;3.15;94.97;103220.19;5039382;28;20371;-72
2023/02/28 11:08:11;;;;;;;3.97;3.13;;;;;;;3.17;95.06;103223.69;5040194;28;20108;-72
2023/02/28 11:10:37;;;;;;;3.30;3.00;;;;;;;3.19;94.80;103226.31;5039411;28;20191;-72
2023/02/28 11:13:03;;;;;;;3.08;2.88;;;;;;;3.18;94.52;103220.25;5038626;28;20398;-72
2023/02/28 11:15:37;;;;;;;3.38;3.17;;;;;;;3.20;94.46;103217.72;5039837;28;20045;-72
2023/02/28 11:18:12;;;;;;;3.28;3.08;;;;;;;3.19;93.94;103224.59;5040406;28;20208;-72
2023/02/28 11:20:38;;;;;;;3.30;3.05;;;;;;;3.16;92.64;103216.75;5039333;28;20037;-72
2023/02/28 11:23:05;;;;;;;5.80;3.55;;;;;;;3.16;91.95;103215.88;5040029;28;20129;-72
2023/02/28 11:25:33;;;;;;;4.93;2.95;;;;;;;3.14;90.19;103217.53;5039386;28;20052;-72
2023/02/28 11:28:06;;;;;;;3.53;3.22;;;;;;;3.13;89.76;103218.38;5040199;28;20032;-72
2023/02/28 11:30:33;;;;;;;3.30;2.92;;;;;;;3.11;87.38;103210.59;5039163;28;20025;-72
2023/02/28 11:33:00;;;;;;;3.00;2.75;;;;;;;3.12;87.43;103214.03;5039744;28;20021;-72
2023/02/28 11:35:34;;;;;;;2.80;2.60;;;;;;;3.13;86.78;103214.09;5039086;28;20321;-72
2023/02/28 11:38:00;;;;;;;2.72;2.53;;;;;;;3.15;86.80;103209.81;5039820;28;20033;-72
2023/02/28 11:40:50;;;;;;;5.28;2.95;;;;;;;3.14;84.67;103204.59;5038693;28;20072;-72
2023/02/28 11:43:51;;;;;;;3.13;2.80;;;;;;;3.18;84.11;103203.84;5039246;28;20048;-72